Terminal Aerodrome Forecast
Issued by NWS Cleveland, OH

Home | Current Version | Previous Version | Text Only | Print | Product List | Glossary On
Versions: 1 2 3 4 5 6 7 8 9 10 11 12 13 14 15 16 17 18 19 20
893
FTUS41 KCLE 201123
TAFTOL
TAF
KTOL 201123Z 2012/2112 19012KT P6SM -SHRA SCT060 BKN100
     FM201500 21015G25KT P6SM VCSH BKN040 OVC120
     FM210400 21014G22KT 6SM -SHRA OVC035
     FM210600 23012G20KT 4SM SHRA BKN025 OVC040
     FM211000 29011KT 3SM -RA BR BKN008 OVC020=

USA.gov is the U.S. government's official web portal to all federal, state and local government web resources and services.